Latest Weather Observations for Cloncurry

IDQ60801

Issued at 7:32 am EST Thursday 17 August 2017 (issued every 30 minutes, with the page automatically refreshed every 10 minutes)

About weather observations | Map of weather stations | Latest weather observations for QLD | Other Formats
Station Details ID: 029141 Name: CLONCURRY AIRPORT Lat: -20.67 Lon: 140.50 Height: 186.0 m
Data from the previous 72 hours. | See also: Recent months at Cloncurry
Date/Time
EST
Temp
°C
App
Temp
°C
Dew
Point
°C
Rel
Hum
%
Delta-T
°C
Wind Press
QNH
hPa
Press
MSL
hPa
Rain since
9am
mm
Dir  Spd
km/h
Gust
km/h
Spd
kts
Gust
kts
17/07:30am 16.2 12.2 0.3 34 6.9 SSW 11 13 6 7 1014.6 1014.0 0.0
17/07:00am 16.7 13.6 1.2 35 6.9 SSW 7 11 4 6 1014.4 1013.8 0.0
17/06:30am 15.7 12.0 -0.1 34 6.8 SSW 9 11 5 6 1013.9 1013.3 0.0
17/06:00am 16.7 13.4 0.4 33 7.1 SSW 7 9 4 5 1013.6 1013.0 0.0
17/05:30am 17.8 14.1 0.0 30 7.8 SSW 9 9 5 5 1013.0 1012.4 0.0
17/05:00am 18.2 15.0 0.8 31 7.8 SSW 7 9 4 5 1012.7 1012.1 0.0
17/04:30am 19.4 16.3 1.4 30 8.2 SSW 7 9 4 5 1012.7 1012.1 0.0
17/04:00am 18.3 14.7 0.9 31 7.8 SSW 9 11 5 6 1012.7 1012.1 0.0
17/03:30am 18.7 15.2 1.2 31 7.9 SSW 9 11 5 6 1012.6 1012.0 0.0
17/03:00am 19.0 16.0 1.1 30 8.1 SSW 6 9 3 5 1012.7 1012.1 0.0
17/02:30am 18.9 15.9 0.5 29 8.2 SSW 6 9 3 5 1012.8 1012.2 0.0
17/02:00am 19.9 16.0 1.4 29 8.5 SSW 11 13 6 7 1012.9 1012.3 0.0
17/01:30am 20.8 17.2 3.1 31 8.4 SSW 11 13 6 7 1013.0 1012.4 0.0
17/01:00am 19.3 15.8 1.3 30 8.2 SSW 9 11 5 6 1013.1 1012.5 0.0
17/12:30am 20.5 18.1 2.3 30 8.5 SSW 4 7 2 4 1013.2 1012.7 0.0
17/12:00am 21.2 18.6 3.0 30 8.7 SSW 6 7 3 4 1013.2 1012.7 0.0
 
Date/Time
EST
Temp
°C
App
Temp
°C
Dew
Point
°C
Rel
Hum
%
Delta-T
°C
Wind Press
QNH
hPa
Press
MSL
hPa
Rain since
9am
mm
Dir  Spd
km/h
Gust
km/h
Spd
kts
Gust
kts
16/11:30pm 22.1 18.6 3.7 30 9.0 SSW 11 13 6 7 1013.2 1012.7 0.0
16/11:00pm 20.0 16.5 1.4 29 8.5 NE 9 9 5 5 1012.8 1012.2 0.0
16/10:30pm 20.5 18.9 2.3 30 8.5 CALM 0 0 0 0 1012.6 1012.0 0.0
16/10:00pm 22.0 19.9 1.6 26 9.5 NE 2 6 1 3 1012.5 1011.9 0.0
16/09:30pm 23.4 21.7 1.7 24 10.3 CALM 0 6 0 3 1012.3 1011.7 0.0
16/09:00pm 25.3 23.0 2.7 23 11.1 NE 4 9 2 5 1012.1 1011.5 0.0
16/08:30pm 25.1 20.9 1.9 22 11.2 NE 13 15 7 8 1011.8 1011.2 0.0
16/08:00pm 27.2 24.0 3.0 21 12.1 NE 9 15 5 8 1011.4 1010.8 0.0
16/07:30pm 27.4 23.6 1.8 19 12.5 NE 11 13 6 7 1011.0 1010.4 0.0
16/07:00pm 29.6 25.6 2.8 18 13.5 NE 13 13 7 7 1010.7 1010.1 0.0
16/06:30pm 30.6 26.8 1.9 16 14.3 ENE 11 13 6 7 1010.4 1009.8 0.0
16/06:00pm 32.9 29.1 1.9 14 15.7 N 11 15 6 8 1010.2 1009.6 0.0
16/05:30pm 33.7 29.6 2.5 14 16.0 N 13 15 7 8 1009.9 1009.3 0.0
16/05:00pm 34.2 30.8 1.9 13 16.5 N 9 15 5 8 1009.8 1009.2 0.0
16/04:30pm 33.9 30.5 1.6 13 16.4 NNE 9 15 5 8 1009.7 1009.1 0.0
16/04:00pm 34.3 31.9 2.0 13 16.6 NNE 4 13 2 7 1009.7 1009.1 0.0
16/03:30pm 33.8 29.8 2.6 14 16.1 NW 13 20 7 11 1009.9 1009.3 0.0
16/03:00pm 33.5 29.4 2.4 14 16.0 N 13 19 7 10 1010.1 1009.5 0.0
16/02:30pm 33.4 29.3 2.3 14 15.9 NNW 13 24 7 13 1010.5 1009.9 0.0
16/02:00pm 33.4 30.2 3.3 15 15.7 E 9 17 5 9 1010.9 1010.3 0.0
16/01:30pm 32.2 28.1 2.3 15 15.2 NNW 13 24 7 13 1011.4 1010.8 0.0
16/01:00pm 31.9 27.9 3.0 16 14.8 NW 13 20 7 11 1012.1 1011.5 0.0
16/12:30pm 31.3 27.6 4.2 18 14.1 NNW 13 19 7 10 1012.5 1011.9 0.0
16/12:00pm 30.8 27.5 4.5 19 13.7 NNW 11 19 6 10 1013.0 1012.4 0.0
16/11:30am 29.7 26.4 4.4 20 13.1 N 11 17 6 9 1013.7 1013.1 0.0
16/11:00am 29.1 25.8 4.6 21 12.7 NNW 11 19 6 10 1014.1 1013.5 0.0
16/10:30am 28.2 24.1 4.5 22 12.2 N 15 20 8 11 1014.5 1013.9 0.0
16/10:00am 27.3 23.2 4.4 23 11.7 N 15 20 8 11 1014.7 1014.1 0.0
16/09:30am 26.1 22.5 5.1 26 10.8 N 13 19 7 10 1014.9 1014.3 0.0
16/09:00am 24.9 21.0 5.2 28 10.0 N 15 22 8 12 1014.9 1014.3 0.0
16/08:30am 24.0 21.1 4.9 29 9.6 NNE 9 15 5 8 1014.6 1014.0 0.0
16/08:00am 21.4 18.3 3.6 31 8.6 NE 9 15 5 8 1014.4 1013.8 0.0
16/07:30am 19.6 15.9 2.5 32 8.0 NE 11 17 6 9 1014.2 1013.6 0.0
16/07:00am 18.6 13.5 2.9 35 7.3 NE 19 26 10 14 1013.8 1013.2 0.0
16/06:30am 14.7 10.5 1.9 42 5.7 N 13 13 7 7 1013.1 1012.5 0.0
16/06:00am 14.8 10.7 2.4 43 5.6 N 13 15 7 8 1012.7 1012.1 0.0
16/05:30am 14.8 11.8 4.2 49 4.9 N 9 9 5 5 1012.3 1011.7 0.0
16/05:00am 14.2 12.7 3.1 47 5.0 CALM 0 0 0 0 1012.0 1011.4 0.0
16/04:30am 13.7 12.3 3.5 50 4.6 CALM 0 0 0 0 1011.9 1011.3 0.0
16/04:00am 14.2 11.5 2.8 46 5.1 N 6 9 3 5 1011.9 1011.3 0.0
16/03:30am 15.1 12.5 3.0 44 5.5 N 6 7 3 4 1011.9 1011.3 0.0
16/03:00am 15.3 12.7 3.1 44 5.6 N 6 7 3 4 1012.2 1011.6 0.0
16/02:30am 16.0 13.2 2.1 39 6.3 N 6 7 3 4 1012.3 1011.7 0.0
16/02:00am 16.0 12.8 3.1 42 5.9 N 9 11 5 6 1012.6 1012.0 0.0
16/01:30am 17.4 14.0 1.8 35 7.1 N 9 9 5 5 1012.8 1012.2 0.0
16/01:00am 17.3 14.1 2.9 38 6.7 N 9 11 5 6 1012.9 1012.3 0.0
16/12:30am 17.1 14.1 0.7 33 7.2 N 6 9 3 5 1013.1 1012.5 0.0
16/12:00am 17.5 15.6 0.6 32 7.5 CALM 0 0 0 0 1013.1 1012.5 0.0
 
Date/Time
EST
Temp
°C
App
Temp
°C
Dew
Point
°C
Rel
Hum
%
Delta-T
°C
Wind Press
QNH
hPa
Press
MSL
hPa
Rain since
9am
mm
Dir  Spd
km/h
Gust
km/h
Spd
kts
Gust
kts
15/11:30pm 17.9 15.9 -0.4 29 7.9 CALM 0 0 0 0 1013.3 1012.8 0.0
15/11:00pm 19.2 17.3 0.3 28 8.4 CALM 0 0 0 0 1013.3 1012.8 0.0
15/10:30pm 20.0 17.6 -0.1 26 8.9 N 2 6 1 3 1013.6 1013.0 0.0
15/10:00pm 20.8 17.8 0.6 26 9.2 N 6 7 3 4 1013.4 1012.9 0.0
15/09:30pm 21.6 19.9 1.8 27 9.3 CALM 0 0 0 0 1013.4 1012.9 0.0
15/09:00pm 21.4 18.5 1.7 27 9.2 N 6 6 3 3 1013.2 1012.7 0.0
15/08:30pm 22.3 20.6 1.9 26 9.6 CALM 0 0 0 0 1013.0 1012.4 0.0
15/08:00pm 23.9 20.9 0.9 22 10.8 N 6 7 3 4 1012.7 1012.1 0.0
15/07:30pm 25.5 22.1 1.6 21 11.5 N 9 9 5 5 1012.4 1011.8 0.0
15/07:00pm 27.3 24.3 1.7 19 12.5 N 7 7 4 4 1012.1 1011.5 0.0
15/06:30pm 28.9 25.8 1.4 17 13.5 N 7 7 4 4 1012.1 1011.5 0.0
15/06:00pm 31.3 28.4 1.6 15 14.8 N 6 9 3 5 1011.9 1011.3 0.0
15/05:30pm 32.3 29.8 1.4 14 15.5 WNW 4 7 2 4 1011.8 1011.2 0.0
15/05:00pm 32.5 29.4 1.6 14 15.6 NW 7 13 4 7 1011.7 1011.1 0.0
15/04:30pm 32.1 28.2 1.3 14 15.4 ENE 11 19 6 10 1011.7 1011.1 0.0
15/04:00pm 32.2 29.2 2.3 15 15.2 N 7 13 4 7 1011.7 1011.1 0.0
15/03:30pm 32.3 28.6 2.4 15 15.2 ENE 11 19 6 10 1011.9 1011.3 0.0
15/03:00pm 32.1 29.1 2.2 15 15.2 NE 7 19 4 10 1012.4 1011.8 0.0
15/02:30pm 32.0 28.4 3.1 16 14.9 NE 11 20 6 11 1012.7 1012.1 0.0
15/02:00pm 31.1 26.4 3.2 17 14.3 E 17 24 9 13 1013.2 1012.7 0.0
15/01:30pm 31.7 27.1 3.7 17 14.5 N 17 28 9 15 1013.8 1013.2 0.0
15/01:00pm 31.0 27.2 3.9 18 14.0 NNW 13 22 7 12 1014.4 1013.8 0.0
15/12:30pm 30.3 26.8 3.4 18 13.8 N 11 20 6 11 1015.0 1014.4 0.0
15/12:00pm 30.1 26.8 4.7 20 13.3 N 11 20 6 11 1015.6 1015.0 0.0
15/11:30am 29.3 25.3 4.7 21 12.8 NNW 15 20 8 11 1016.1 1015.5 0.0
15/11:00am 28.5 24.7 4.1 21 12.5 NNW 13 24 7 13 1016.8 1016.2 0.0
15/10:30am 27.1 22.1 3.6 22 11.8 N 19 24 10 13 1017.3 1016.7 0.0
15/10:00am 26.0 21.7 3.3 23 11.3 N 15 20 8 11 1017.6 1017.0 0.0
15/09:30am 24.7 20.0 3.4 25 10.5 NNE 17 20 9 11 1017.9 1017.4 0.0
15/09:00am 23.3 19.7 2.7 26 9.9 N 11 15 6 8 1017.9 1017.4 0.0
15/08:30am 21.5 19.4 1.7 27 9.2 ESE 2 7 1 4 1017.9 1017.4 0.0
15/08:00am 17.8 14.7 1.3 33 7.4 ESE 7 9 4 5 1017.5 1016.9 0.0
15/07:30am 13.9 10.0 -1.3 35 6.2 ESE 9 11 5 6 1017.3 1016.7 0.0
15/07:00am 13.8 10.1 0.1 39 5.8 ESE 9 9 5 5 1016.9 1016.3 0.0
15/06:30am 16.1 12.4 -0.2 33 7.0 ESE 9 9 5 5 1016.5 1015.9 0.0
15/06:00am 15.1 11.6 -1.0 33 6.7 ESE 7 9 4 5 1016.0 1015.4 0.0
15/05:30am 15.7 12.3 -0.9 32 7.0 ESE 7 9 4 5 1015.5 1014.9 0.0
15/05:00am 16.6 12.9 -0.1 32 7.2 ESE 9 11 5 6 1015.3 1014.7 0.0
15/04:30am 15.9 11.7 -1.2 31 7.2 ESE 11 13 6 7 1015.0 1014.4 0.0
15/04:00am 15.7 11.8 -1.4 31 7.1 ESE 9 9 5 5 1015.0 1014.4 0.0
15/03:30am 16.4 12.6 -0.8 31 7.3 ESE 9 11 5 6 1015.2 1014.6 0.0
15/03:00am 15.9 12.0 -1.6 30 7.3 ESE 9 11 5 6 1015.3 1014.7 0.0
15/02:30am 15.5 11.5 -2.4 29 7.3 ESE 9 11 5 6 1015.2 1014.6 0.0
15/02:00am 15.8 11.4 -2.2 29 7.4 ESE 11 11 6 6 1015.3 1014.7 0.0
15/01:30am 15.8 11.8 -2.6 28 7.5 ESE 9 11 5 6 1015.5 1014.9 0.0
15/01:00am 16.6 12.2 -2.5 27 7.8 ESE 11 13 6 7 1015.7 1015.1 0.0
15/12:30am 17.5 13.2 -1.7 27 8.1 ESE 11 13 6 7 1015.8 1015.2 0.0
15/12:00am 17.4 14.4 -1.8 27 8.1 ESE 4 7 2 4 1015.9 1015.3 0.0
 
Date/Time
EST
Temp
°C
App
Temp
°C
Dew
Point
°C
Rel
Hum
%
Delta-T
°C
Wind Press
QNH
hPa
Press
MSL
hPa
Rain since
9am
mm
Dir  Spd
km/h
Gust
km/h
Spd
kts
Gust
kts
14/11:30pm 17.7 13.8 -1.5 27 8.1 ESE 9 9 5 5 1016.0 1015.4 0.0
14/11:00pm 18.3 14.8 -1.0 27 8.3 ESE 7 9 4 5 1016.0 1015.4 0.0
14/10:30pm 19.3 16.0 -0.1 27 8.6 ESE 7 9 4 5 1016.3 1015.7 0.0
14/10:00pm 19.6 16.2 -0.4 26 8.8 ESE 7 9 4 5 1016.3 1015.7 0.0
14/09:30pm 18.9 15.2 -2.7 23 9.0 ESE 7 9 4 5 1016.3 1015.7 0.0
14/09:00pm 20.1 16.5 -2.3 22 9.5 ESE 7 9 4 5 1016.3 1015.7 0.0
14/08:30pm 20.9 18.4 -3.6 19 10.3 CALM 0 0 0 0 1016.1 1015.5 0.0
14/08:00pm 22.4 19.0 -2.3 19 10.7 ESE 6 7 3 4 1015.9 1015.3 0.0
14/07:30pm 24.2 21.1 -2.4 17 11.7 ESE 4 6 2 3 1015.7 1015.1 0.0
14/07:00pm 26.2 22.6 -3.4 14 13.0 ESE 6 9 3 5 1015.6 1015.0 0.0
14/06:30pm 28.6 24.6 -2.5 13 14.2 ESE 9 9 5 5 1015.5 1014.9 0.0
14/06:00pm 30.2 25.4 -2.3 12 15.0 ESE 13 19 7 10 1015.5 1014.9 0.0
14/05:30pm 31.1 26.4 -1.6 12 15.4 E 13 17 7 9 1015.3 1014.7 0.0
14/05:00pm 31.5 26.3 -2.5 11 15.8 ESE 15 22 8 12 1015.2 1014.6 0.0
14/04:30pm 31.3 26.3 -1.5 12 15.5 E 15 22 8 12 1015.1 1014.5 0.0
14/04:00pm 31.4 27.5 -1.4 12 15.6 SE 9 15 5 8 1015.2 1014.6 0.0
14/03:30pm 31.6 26.4 -2.4 11 15.9 ESE 15 22 8 12 1015.5 1014.9 0.0
14/03:00pm 31.6 26.2 -1.2 12 15.6 E 17 28 9 15 1015.7 1015.1 0.0
14/02:30pm 31.5 26.5 -1.3 12 15.6 E 15 30 8 16 1016.1 1015.5 0.0
14/02:00pm 31.0 25.7 -0.6 13 15.1 SE 17 30 9 16 1016.6 1016.0 0.0
14/01:30pm 31.1 26.6 -0.5 13 15.2 E 13 24 7 13 1017.3 1016.7 0.0
14/01:00pm 29.4 25.2 -0.9 14 14.3 ENE 11 24 6 13 1017.9 1017.4 0.0
14/12:30pm 29.1 24.9 -1.1 14 14.2 ENE 11 20 6 11 1018.5 1018.0 0.0
14/12:00pm 28.9 24.4 -0.3 15 13.8 NE 13 22 7 12 1019.2 1018.6 0.0
14/11:30am 27.3 21.9 -1.6 15 13.3 N 17 20 9 11 1019.7 1019.1 0.0
14/11:00am 26.5 21.2 -0.5 17 12.5 N 17 26 9 14 1020.0 1019.4 0.0
14/10:30am 25.9 20.4 -1.8 16 12.5 NE 17 22 9 12 1020.3 1019.7 0.0
14/10:00am 25.2 20.3 -3.2 15 12.4 NE 13 17 7 9 1020.6 1020.0 0.0
14/09:30am 24.6 20.5 -2.9 16 12.1 ESE 9 13 5 7 1020.3 1019.7 0.0
14/09:00am 23.3 19.3 -2.3 18 11.2 SSE 9 15 5 8 1020.1 1019.5 0.0
14/08:30am 20.0 16.6 -0.6 25 9.1 SSE 7 9 4 5 1020.0 1019.4 0.0
14/08:00am 16.4 13.0 -0.3 32 7.1 SSE 7 7 4 4 1019.9 1019.3 0.0

Other Formats:

Comma delimited format used in spreadsheet applications
http://www.bom.gov.au/fwo/IDQ60801/IDQ60801.94335.axf

JavaScript Object Notation format (JSON) in row-major order
http://www.bom.gov.au/fwo/IDQ60801/IDQ60801.94335.json